Time;durP1;ratioP1;P1;durP2;ratioP2;P2;SDS_P1;SDS_P2;PMS_P1;PMS_P2;Temp;Humidity;BMP_temperature;BMP_pressure;BME280_temperature;BME280_humidity;BME280_pressure;Samples;Min_cycle;Max_cycle;Signal;HPM_P1;HPM_P2
2021/08/16 00:02:23;;;;;;;14.50;11.48;;;20.50;99.90;;;;;;5012085;28;20427;-73
2021/08/16 00:04:48;;;;;;;14.95;12.05;;;20.70;99.90;;;;;;5011791;28;20064;-73
2021/08/16 00:07:14;;;;;;;14.90;11.63;;;20.70;99.90;;;;;;5012011;28;20065;-73
2021/08/16 00:09:39;;;;;;;14.38;11.57;;;20.80;99.90;;;;;;5027068;28;20464;-73
2021/08/16 00:12:06;;;;;;;17.67;11.50;;;20.70;99.90;;;;;;5012040;28;20030;-73
2021/08/16 00:14:32;;;;;;;14.63;11.73;;;20.50;99.90;;;;;;5007464;28;20492;-73
2021/08/16 00:16:58;;;;;;;14.95;11.27;;;20.10;99.90;;;;;;4992476;28;20034;-73
2021/08/16 00:19:25;;;;;;;15.80;11.93;;;20.00;99.90;;;;;;4992428;28;20031;-73
2021/08/16 00:21:51;;;;;;;15.27;11.38;;;20.10;99.90;;;;;;4992353;28;20034;-73
2021/08/16 00:24:16;;;;;;;14.48;12.07;;;20.00;99.90;;;;;;5010073;28;20481;-73
2021/08/16 00:26:42;;;;;;;14.55;11.23;;;20.10;99.90;;;;;;5011882;28;20436;-73
2021/08/16 00:29:07;;;;;;;16.02;11.55;;;20.10;99.90;;;;;;5011903;28;20038;-73
2021/08/16 00:31:33;;;;;;;14.50;11.88;;;20.30;99.90;;;;;;5011689;28;20045;-73
2021/08/16 00:33:58;;;;;;;18.58;12.07;;;20.40;99.90;;;;;;5027088;28;20396;-73
2021/08/16 00:36:24;;;;;;;14.20;11.27;;;20.50;99.90;;;;;;5011570;28;20100;-73
2021/08/16 00:38:50;;;;;;;14.00;11.30;;;20.60;99.90;;;;;;5005895;28;20062;-73
2021/08/16 00:41:17;;;;;;;14.45;11.88;;;20.50;99.90;;;;;;4992161;28;20072;-73
2021/08/16 00:43:43;;;;;;;15.48;12.18;;;20.50;99.90;;;;;;4994748;28;20473;-73
2021/08/16 00:46:09;;;;;;;13.55;11.80;;;20.40;99.90;;;;;;4995827;28;20157;-73
2021/08/16 00:48:34;;;;;;;15.00;11.95;;;20.30;99.90;;;;;;4995807;28;20137;-73
2021/08/16 00:51:02;;;;;;;14.25;12.30;;;20.10;99.90;;;;;;4995485;28;20039;-73
2021/08/16 00:53:31;;;;;;;15.23;12.50;;;20.00;99.90;;;;;;4995773;28;20027;-73
2021/08/16 00:55:57;;;;;;;14.65;11.88;;;20.00;99.90;;;;;;4995495;28;20035;-72
2021/08/16 00:58:23;;;;;;;14.77;12.13;;;19.90;99.90;;;;;;4995635;28;20029;-73
2021/08/16 01:00:52;;;;;;;14.82;12.85;;;19.70;99.90;;;;;;4994403;28;20404;-72
2021/08/16 01:03:17;;;;;;;14.90;12.25;;;19.80;99.90;;;;;;4995446;28;20416;-73
2021/08/16 01:05:43;;;;;;;14.65;12.52;;;19.70;99.90;;;;;;4995190;28;20042;-73
2021/08/16 01:08:08;;;;;;;14.68;12.88;;;19.60;99.90;;;;;;4995670;28;20031;-73
2021/08/16 01:10:34;;;;;;;16.98;12.70;;;19.70;99.90;;;;;;4995293;28;20523;-73
2021/08/16 01:13:00;;;;;;;18.27;12.82;;;19.80;99.90;;;;;;4993936;28;20122;-73
2021/08/16 01:15:28;;;;;;;14.88;12.68;;;20.00;99.90;;;;;;4995260;28;20481;-73
2021/08/16 01:17:54;;;;;;;14.98;11.98;;;20.10;99.90;;;;;;4995280;28;20022;-73
2021/08/16 01:20:20;;;;;;;16.27;12.70;;;20.10;99.90;;;;;;4995271;28;20097;-73
2021/08/16 01:22:46;;;;;;;17.05;12.93;;;20.30;99.90;;;;;;4994013;28;20477;-73
2021/08/16 01:25:11;;;;;;;16.90;13.20;;;20.10;99.90;;;;;;4995405;28;20026;-73
2021/08/16 01:27:38;;;;;;;20.80;13.15;;;20.10;99.90;;;;;;4995112;28;20022;-72
2021/08/16 01:30:07;;;;;;;17.42;12.75;;;20.10;99.90;;;;;;4994838;28;20027;-73
2021/08/16 01:32:32;;;;;;;14.98;13.35;;;20.00;99.90;;;;;;5000138;28;20037;-73
2021/08/16 01:34:58;;;;;;;14.35;12.85;;;20.00;99.90;;;;;;5014315;28;20022;-73
2021/08/16 01:37:23;;;;;;;18.38;13.82;;;20.10;99.90;;;;;;5014250;28;20030;-73
2021/08/16 01:39:49;;;;;;;16.70;12.75;;;20.10;99.90;;;;;;5014245;28;20033;-73
2021/08/16 01:42:14;;;;;;;17.65;13.50;;;19.80;99.90;;;;;;5014283;28;20038;-73
2021/08/16 01:44:40;;;;;;;20.60;14.40;;;19.70;99.90;;;;;;5012845;28;20033;-73
2021/08/16 01:47:05;;;;;;;16.25;13.30;;;19.60;99.90;;;;;;5014133;28;20030;-73
2021/08/16 01:49:31;;;;;;;16.80;13.38;;;19.50;99.90;;;;;;5014034;28;20030;-73
2021/08/16 01:51:56;;;;;;;19.02;13.27;;;19.60;99.90;;;;;;5013993;28;20033;-73
2021/08/16 01:54:22;;;;;;;16.83;14.00;;;19.50;99.90;;;;;;5012466;28;20050;-73
2021/08/16 01:56:48;;;;;;;20.30;13.77;;;19.50;99.90;;;;;;4996587;28;20022;-73
2021/08/16 01:59:13;;;;;;;17.80;13.32;;;19.50;99.90;;;;;;4994380;28;20049;-73
2021/08/16 02:01:39;;;;;;;15.38;12.68;;;19.60;99.90;;;;;;4993080;28;20511;-73
2021/08/16 02:04:05;;;;;;;17.67;13.48;;;19.70;99.90;;;;;;4994444;28;20397;-72
2021/08/16 02:06:30;;;;;;;17.95;13.93;;;19.70;99.90;;;;;;4994106;28;20031;-73
2021/08/16 02:08:56;;;;;;;19.65;13.55;;;19.60;99.90;;;;;;4994468;28;20679;-73
2021/08/16 02:11:23;;;;;;;18.27;14.00;;;19.60;99.90;;;;;;4998532;28;20032;-73
2021/08/16 02:13:48;;;;;;;17.63;13.75;;;19.60;99.90;;;;;;5013927;28;20068;-73
2021/08/16 02:16:14;;;;;;;19.27;13.95;;;19.60;99.90;;;;;;5008609;28;20018;-73
2021/08/16 02:18:40;;;;;;;16.83;13.88;;;19.60;99.90;;;;;;4994052;28;20444;-73
2021/08/16 02:21:06;;;;;;;16.90;13.70;;;19.70;99.90;;;;;;4993951;28;20436;-73
2021/08/16 02:23:31;;;;;;;18.75;13.95;;;19.70;99.90;;;;;;4994390;28;20030;-73
2021/08/16 02:25:57;;;;;;;16.80;13.45;;;19.60;99.90;;;;;;4994132;28;20053;-73
2021/08/16 02:28:23;;;;;;;22.15;14.80;;;19.60;99.90;;;;;;4994135;28;20034;-73
2021/08/16 02:30:48;;;;;;;15.98;13.10;;;19.60;99.90;;;;;;4993838;28;20038;-73
2021/08/16 02:33:15;;;;;;;17.73;13.90;;;19.60;99.90;;;;;;4993844;28;20110;-73
2021/08/16 02:35:42;;;;;;;17.52;14.18;;;19.60;99.90;;;;;;4993682;28;20036;-73
2021/08/16 02:38:09;;;;;;;19.13;14.70;;;19.50;99.90;;;;;;4993808;28;20026;-73
2021/08/16 02:40:35;;;;;;;17.63;14.95;;;19.50;99.90;;;;;;4993650;28;20036;-73
2021/08/16 02:43:01;;;;;;;20.20;14.82;;;19.20;99.90;;;;;;4992429;28;20026;-73
2021/08/16 02:45:27;;;;;;;19.15;14.82;;;19.00;99.90;;;;;;4993310;28;20045;-73
2021/08/16 02:47:53;;;;;;;18.50;14.82;;;19.00;99.90;;;;;;4993958;28;20515;-73
2021/08/16 02:50:19;;;;;;;19.33;14.27;;;18.90;99.90;;;;;;4993331;28;20045;-73
2021/08/16 02:52:45;;;;;;;20.65;14.57;;;18.90;99.90;;;;;;5004379;28;20026;-73
2021/08/16 02:55:11;;;;;;;21.13;15.32;;;19.10;99.90;;;;;;5012813;28;20030;-73
2021/08/16 02:57:37;;;;;;;17.85;14.65;;;18.80;99.90;;;;;;5011754;28;20439;-73
2021/08/16 03:00:04;;;;;;;19.58;14.18;;;18.70;99.90;;;;;;5013019;28;20022;-73
2021/08/16 03:02:30;;;;;;;17.17;13.30;;;19.00;99.90;;;;;;5012722;28;20061;-73
2021/08/16 03:04:55;;;;;;;16.50;13.38;;;19.20;99.90;;;;;;5012030;28;20033;-73
2021/08/16 03:07:21;;;;;;;17.85;14.45;;;19.40;99.90;;;;;;5012890;28;20026;-73
2021/08/16 03:09:47;;;;;;;17.38;13.80;;;19.30;99.90;;;;;;5012735;28;20030;-73
2021/08/16 03:12:12;;;;;;;18.40;14.32;;;19.30;99.90;;;;;;5011349;28;20076;-73
2021/08/16 03:14:38;;;;;;;20.85;13.80;;;19.20;99.90;;;;;;5007320;28;20011;-73
2021/08/16 03:17:04;;;;;;;18.77;13.30;;;19.20;99.90;;;;;;4993264;28;20066;-73
2021/08/16 03:19:30;;;;;;;17.42;13.45;;;19.10;99.90;;;;;;4992950;28;20027;-73
2021/08/16 03:21:56;;;;;;;14.20;12.50;;;19.20;99.90;;;;;;4993043;28;20398;-73
2021/08/16 03:24:23;;;;;;;18.15;14.15;;;19.40;99.90;;;;;;4992840;28;20041;-73
2021/08/16 03:26:49;;;;;;;15.38;13.40;;;19.30;99.90;;;;;;4993165;28;20026;-73
2021/08/16 03:29:15;;;;;;;16.40;12.77;;;19.30;99.90;;;;;;4992885;28;20110;-73
2021/08/16 03:31:40;;;;;;;16.30;13.95;;;19.30;99.90;;;;;;4992816;28;20022;-73
2021/08/16 03:34:06;;;;;;;14.65;12.85;;;19.30;99.90;;;;;;4992906;28;20348;-73
2021/08/16 03:36:31;;;;;;;17.25;12.93;;;19.20;99.90;;;;;;4992519;28;20026;-73
2021/08/16 03:38:57;;;;;;;15.55;13.07;;;19.10;99.90;;;;;;4993043;28;20049;-73
2021/08/16 03:41:22;;;;;;;18.33;13.20;;;19.20;99.90;;;;;;4992708;28;20034;-73
2021/08/16 03:43:48;;;;;;;15.98;11.88;;;19.20;99.90;;;;;;4992706;28;20443;-73
2021/08/16 03:46:14;;;;;;;18.42;12.45;;;19.30;99.90;;;;;;4992897;28;20565;-73
2021/08/16 03:48:40;;;;;;;16.75;11.77;;;19.20;99.90;;;;;;4992544;28;20026;-73
2021/08/16 03:51:05;;;;;;;14.02;11.38;;;19.20;99.90;;;;;;4992559;28;20038;-73
2021/08/16 03:53:31;;;;;;;15.63;11.82;;;19.40;99.90;;;;;;4992528;28;20388;-73
2021/08/16 03:55:56;;;;;;;15.13;11.73;;;19.40;99.90;;;;;;4992599;28;20058;-73
2021/08/16 03:58:22;;;;;;;17.77;11.93;;;19.40;99.90;;;;;;4992998;28;20027;-73
2021/08/16 04:00:47;;;;;;;13.65;11.65;;;19.40;99.90;;;;;;4992511;28;20029;-73
2021/08/16 04:03:13;;;;;;;14.10;11.60;;;19.30;99.90;;;;;;4992517;28;20053;-73
2021/08/16 04:05:40;;;;;;;14.43;12.35;;;19.30;99.90;;;;;;4992352;28;20370;-73
2021/08/16 04:08:05;;;;;;;16.73;11.50;;;19.00;99.90;;;;;;4992589;28;20304;-73
2021/08/16 04:10:31;;;;;;;13.85;11.43;;;19.30;99.90;;;;;;4992296;28;20168;-73
2021/08/16 04:12:56;;;;;;;16.70;11.35;;;19.30;99.90;;;;;;4992381;28;20023;-73
2021/08/16 04:15:22;;;;;;;21.83;11.98;;;19.40;99.90;;;;;;4992168;28;20093;-72
2021/08/16 04:17:48;;;;;;;15.18;11.13;;;19.30;99.90;;;;;;4993848;28;20045;-73
2021/08/16 04:20:16;;;;;;;16.90;11.77;;;19.40;99.90;;;;;;4996594;28;20039;-72
2021/08/16 04:22:43;;;;;;;14.98;11.13;;;19.40;99.90;;;;;;4995950;28;20531;-73
2021/08/16 04:25:10;;;;;;;16.83;11.32;;;19.40;99.90;;;;;;4996060;28;20033;-73
2021/08/16 04:27:38;;;;;;;15.77;11.55;;;19.50;99.90;;;;;;4996074;28;20026;-73
2021/08/16 04:30:04;;;;;;;13.65;11.82;;;19.40;99.90;;;;;;4996354;28;20023;-73
2021/08/16 04:32:30;;;;;;;16.90;12.18;;;19.40;99.90;;;;;;5001405;28;20026;-73
2021/08/16 04:34:55;;;;;;;15.85;12.52;;;19.40;99.90;;;;;;5015769;28;20033;-73
2021/08/16 04:37:21;;;;;;;14.38;11.90;;;19.30;99.90;;;;;;5015293;28;20030;-73
2021/08/16 04:39:46;;;;;;;14.88;11.43;;;19.40;99.90;;;;;;5015497;28;20026;-73
2021/08/16 04:42:12;;;;;;;16.90;12.77;;;19.30;99.90;;;;;;5015303;28;20237;-73
2021/08/16 04:44:37;;;;;;;14.50;12.00;;;19.20;99.90;;;;;;5015330;28;20223;-73
2021/08/16 04:47:03;;;;;;;15.02;12.00;;;19.20;99.90;;;;;;4997506;28;20477;-73
2021/08/16 04:49:28;;;;;;;17.25;12.38;;;19.20;99.90;;;;;;4995725;28;20034;-73
2021/08/16 04:51:54;;;;;;;15.50;12.35;;;19.10;99.90;;;;;;4995519;28;20106;-73
2021/08/16 04:54:19;;;;;;;17.13;12.60;;;19.10;99.90;;;;;;5006789;28;20033;-73
2021/08/16 04:56:45;;;;;;;15.98;11.68;;;19.10;99.90;;;;;;5014865;28;20026;-73
2021/08/16 04:59:10;;;;;;;17.58;12.48;;;19.20;99.90;;;;;;5015157;28;20076;-73
2021/08/16 05:01:37;;;;;;;20.40;13.23;;;19.20;99.90;;;;;;5015045;28;20105;-73
2021/08/16 05:04:03;;;;;;;15.88;12.20;;;19.20;99.90;;;;;;5015209;28;20022;-73
2021/08/16 05:06:29;;;;;;;13.55;11.85;;;19.10;99.90;;;;;;5014785;28;20391;-73
2021/08/16 05:09:02;;;;;;;16.58;12.75;;;19.10;99.90;;;;;;5014007;28;20137;-73
2021/08/16 05:11:29;;;;;;;15.02;12.15;;;19.20;99.90;;;;;;5014795;28;20022;-72
2021/08/16 05:13:54;;;;;;;18.02;12.32;;;19.20;99.90;;;;;;5015025;28;20512;-73
2021/08/16 05:16:20;;;;;;;15.77;12.25;;;19.30;99.90;;;;;;4995779;28;20031;-73
2021/08/16 05:18:46;;;;;;;15.48;11.90;;;19.30;99.90;;;;;;4995423;28;20077;-73
2021/08/16 05:21:11;;;;;;;14.70;12.10;;;19.40;99.90;;;;;;4995394;28;20035;-73
2021/08/16 05:23:37;;;;;;;13.57;11.65;;;19.40;99.90;;;;;;4995164;28;20039;-73
2021/08/16 05:26:03;;;;;;;15.90;12.50;;;19.40;99.90;;;;;;4994835;28;20026;-73
2021/08/16 05:28:29;;;;;;;12.88;11.38;;;19.50;99.90;;;;;;4994577;28;20089;-72
2021/08/16 05:30:55;;;;;;;13.50;11.77;;;19.50;99.90;;;;;;4994952;28;20023;-73
2021/08/16 05:33:20;;;;;;;15.23;12.13;;;19.60;99.90;;;;;;4995507;28;20026;-73
2021/08/16 05:35:46;;;;;;;13.68;12.25;;;19.50;99.90;;;;;;4994487;28;20072;-72
2021/08/16 05:38:12;;;;;;;15.65;12.18;;;19.50;99.90;;;;;;4994749;28;20389;-73
2021/08/16 05:40:37;;;;;;;14.50;11.07;;;19.50;99.90;;;;;;4994465;28;20105;-73
2021/08/16 05:43:03;;;;;;;16.75;11.70;;;19.60;99.90;;;;;;4994572;28;20029;-73
2021/08/16 05:45:29;;;;;;;14.13;11.32;;;19.80;99.90;;;;;;4994231;28;20038;-72
2021/08/16 05:47:54;;;;;;;13.32;10.93;;;19.50;99.90;;;;;;4993218;28;20022;-72
2021/08/16 05:50:20;;;;;;;13.27;10.27;;;19.50;99.90;;;;;;4994257;28;20132;-72
2021/08/16 05:52:46;;;;;;;14.30;11.00;;;19.60;99.90;;;;;;4994373;28;20030;-73
2021/08/16 05:55:11;;;;;;;13.73;10.18;;;19.70;99.90;;;;;;4993928;28;20058;-73
2021/08/16 05:57:37;;;;;;;17.23;11.07;;;19.70;99.90;;;;;;4994348;28;20033;-73
2021/08/16 06:00:03;;;;;;;13.35;10.07;;;19.90;99.90;;;;;;4994198;28;20026;-73
2021/08/16 06:02:33;;;;;;;14.95;9.75;;;19.80;99.90;;;;;;4994236;28;20068;-73
2021/08/16 06:04:59;;;;;;;12.38;9.60;;;19.80;99.90;;;;;;5011975;28;20048;-73
2021/08/16 06:07:24;;;;;;;11.50;9.98;;;19.80;99.90;;;;;;5013671;28;20477;-73
2021/08/16 06:09:49;;;;;;;17.08;9.85;;;19.90;99.90;;;;;;5013479;28;20072;-73
2021/08/16 06:12:15;;;;;;;11.63;9.88;;;20.00;99.90;;;;;;5013630;28;20451;-73
2021/08/16 06:14:41;;;;;;;13.23;9.27;;;19.90;99.90;;;;;;5008002;28;20030;-73
2021/08/16 06:17:06;;;;;;;12.88;8.88;;;20.10;99.90;;;;;;4993998;28;20023;-73
2021/08/16 06:19:35;;;;;;;15.23;8.77;;;20.00;99.90;;;;;;4993744;28;20027;-73
2021/08/16 06:22:01;;;;;;;11.70;8.45;;;20.10;99.90;;;;;;4993717;28;20030;-73
2021/08/16 06:24:27;;;;;;;12.18;7.97;;;19.90;99.90;;;;;;4993366;28;20092;-73
2021/08/16 06:26:52;;;;;;;9.25;7.50;;;19.90;99.90;;;;;;4993769;28;20477;-73
2021/08/16 06:29:18;;;;;;;10.35;7.53;;;19.90;99.90;;;;;;4993824;28;20022;-73
2021/08/16 06:31:43;;;;;;;9.75;7.32;;;20.10;99.90;;;;;;4992343;28;20112;-73
2021/08/16 06:34:10;;;;;;;13.10;7.78;;;20.30;99.90;;;;;;4993582;28;20030;-73
2021/08/16 06:36:39;;;;;;;10.98;7.57;;;20.20;99.90;;;;;;4993395;28;20023;-72
2021/08/16 06:39:08;;;;;;;11.98;7.82;;;20.20;99.90;;;;;;4993392;28;20018;-73
2021/08/16 06:41:35;;;;;;;12.10;7.05;;;20.10;99.90;;;;;;4991377;28;20396;-73
2021/08/16 06:44:01;;;;;;;12.77;7.32;;;20.00;99.90;;;;;;4992027;28;20026;-73
2021/08/16 06:46:26;;;;;;;11.63;6.70;;;20.00;99.90;;;;;;4993109;28;20034;-73
2021/08/16 06:48:52;;;;;;;10.57;7.00;;;20.00;99.90;;;;;;4993202;28;20110;-73
2021/08/16 06:51:17;;;;;;;12.40;7.00;;;20.00;99.90;;;;;;4991717;28;20374;-73
2021/08/16 06:53:43;;;;;;;11.18;7.32;;;20.00;99.90;;;;;;4993137;28;20030;-73
2021/08/16 06:56:08;;;;;;;9.20;6.30;;;20.00;99.90;;;;;;4993055;28;20026;-73
2021/08/16 06:58:34;;;;;;;10.95;6.25;;;20.00;99.90;;;;;;4992997;28;20072;-72
2021/08/16 07:01:00;;;;;;;13.50;6.55;;;20.30;99.90;;;;;;4991728;28;20548;-73
2021/08/16 07:03:29;;;;;;;9.35;6.80;;;20.40;99.90;;;;;;4993038;28;20030;-73
2021/08/16 07:05:55;;;;;;;10.38;6.28;;;20.40;99.90;;;;;;4992637;28;20022;-73
2021/08/16 07:08:20;;;;;;;9.90;7.38;;;20.20;99.90;;;;;;4992946;28;20037;-72
2021/08/16 07:10:47;;;;;;;10.88;7.13;;;20.30;99.90;;;;;;4992801;28;20030;-73
2021/08/16 07:13:13;;;;;;;9.35;6.80;;;20.40;99.90;;;;;;4992771;28;20026;-73
2021/08/16 07:15:38;;;;;;;10.05;6.88;;;20.20;99.90;;;;;;4992605;28;20395;-73
2021/08/16 07:18:04;;;;;;;9.85;6.45;;;20.30;99.90;;;;;;4991650;28;20058;-73
2021/08/16 07:20:30;;;;;;;11.98;6.85;;;20.30;99.90;;;;;;4991492;28;20026;-73
2021/08/16 07:22:56;;;;;;;10.88;6.55;;;20.40;99.90;;;;;;4992800;28;20026;-73
2021/08/16 07:25:21;;;;;;;9.63;6.35;;;20.40;99.90;;;;;;4992496;28;20026;-73
2021/08/16 07:27:47;;;;;;;8.95;6.38;;;20.20;99.90;;;;;;4992667;28;20022;-72
2021/08/16 07:30:13;;;;;;;9.60;5.93;;;20.20;99.90;;;;;;4992596;28;20027;-73
2021/08/16 07:32:40;;;;;;;12.93;6.35;;;20.20;99.90;;;;;;4992333;28;20031;-73
2021/08/16 07:35:06;;;;;;;8.23;5.63;;;20.30;99.90;;;;;;4992284;28;20093;-73
2021/08/16 07:37:31;;;;;;;10.20;5.88;;;20.20;99.90;;;;;;4992424;28;20014;-73
2021/08/16 07:39:57;;;;;;;10.68;5.93;;;20.30;99.90;;;;;;4991454;28;20477;-73
2021/08/16 07:42:25;;;;;;;9.43;5.97;;;20.30;99.90;;;;;;4991140;28;20290;-73
2021/08/16 07:44:52;;;;;;;9.95;6.00;;;20.40;99.90;;;;;;4992303;28;20485;-73
2021/08/16 07:47:18;;;;;;;10.48;5.82;;;20.50;99.90;;;;;;4992399;28;20378;-72
2021/08/16 07:49:43;;;;;;;10.32;5.75;;;20.60;99.90;;;;;;4992238;28;20037;-73
2021/08/16 07:52:09;;;;;;;10.00;6.07;;;20.70;99.90;;;;;;4991967;28;20030;-73
2021/08/16 07:54:34;;;;;;;8.82;5.35;;;21.00;99.90;;;;;;5004883;28;20389;-73
2021/08/16 07:57:00;;;;;;;10.75;5.70;;;21.20;99.90;;;;;;5011816;28;20022;-73
2021/08/16 07:59:26;;;;;;;9.82;6.10;;;21.30;99.90;;;;;;5011921;28;20057;-73
2021/08/16 08:01:51;;;;;;;9.30;5.97;;;21.30;99.90;;;;;;5011814;28;20029;-74
2021/08/16 08:04:17;;;;;;;11.98;5.70;;;21.00;99.90;;;;;;5011713;28;20068;-72
2021/08/16 08:06:43;;;;;;;11.10;5.80;;;20.70;99.90;;;;;;5011848;28;20022;-73
2021/08/16 08:09:08;;;;;;;9.00;6.22;;;20.80;99.90;;;;;;5011797;28;20058;-73
2021/08/16 08:11:34;;;;;;;9.85;5.30;;;20.50;99.90;;;;;;5011494;28;20030;-73
2021/08/16 08:13:59;;;;;;;11.05;5.60;;;20.70;99.90;;;;;;5010570;28;20112;-73
2021/08/16 08:16:25;;;;;;;8.60;5.63;;;20.80;99.90;;;;;;4992001;28;20053;-73
2021/08/16 08:18:50;;;;;;;8.75;5.38;;;20.90;99.90;;;;;;5004982;28;20018;-73
2021/08/16 08:21:18;;;;;;;9.35;5.00;;;20.90;99.90;;;;;;5007265;28;20026;-73
2021/08/16 08:23:44;;;;;;;8.32;4.78;;;20.80;99.90;;;;;;4992054;28;20105;-73
2021/08/16 08:26:11;;;;;;;11.55;4.93;;;20.80;99.90;;;;;;4992093;28;20169;-73
2021/08/16 08:28:37;;;;;;;7.68;4.93;;;21.10;99.90;;;;;;4992007;28;20065;-73
2021/08/16 08:31:02;;;;;;;6.93;4.80;;;21.30;99.90;;;;;;4990707;28;20081;-73
2021/08/16 08:33:28;;;;;;;8.88;4.35;;;21.30;99.90;;;;;;4992472;28;20413;-73
2021/08/16 08:35:54;;;;;;;5.30;3.60;;;21.20;99.90;;;;;;5011808;28;20455;-74
2021/08/16 08:38:20;;;;;;;6.20;3.40;;;20.90;99.90;;;;;;5011745;28;20026;-73
2021/08/16 08:40:47;;;;;;;8.50;3.63;;;20.80;99.90;;;;;;5012044;28;20018;-73
2021/08/16 08:43:14;;;;;;;6.18;3.45;;;20.70;99.90;;;;;;5011876;28;20380;-73
2021/08/16 08:45:42;;;;;;;9.25;3.47;;;20.60;99.90;;;;;;5011565;28;20030;-73
2021/08/16 08:48:08;;;;;;;8.02;3.53;;;20.90;99.90;;;;;;5011632;28;20467;-73
2021/08/16 08:50:34;;;;;;;5.72;3.70;;;20.80;99.90;;;;;;5012742;28;20041;-73
2021/08/16 08:53:02;;;;;;;4.90;3.22;;;20.60;99.90;;;;;;5009759;28;20538;-73
2021/08/16 08:55:28;;;;;;;8.77;3.70;;;20.80;99.90;;;;;;4991591;28;20023;-73
2021/08/16 08:57:54;;;;;;;10.02;3.60;;;21.00;99.90;;;;;;4991744;28;20026;-73
2021/08/16 09:00:20;;;;;;;6.07;3.47;;;21.20;99.90;;;;;;4991836;28;20121;-73
2021/08/16 09:02:59;;;;;;;4.78;3.28;;;20.90;99.90;;;;;;4990291;28;20086;-73
2021/08/16 09:05:25;;;;;;;6.70;3.53;;;21.00;99.90;;;;;;4995086;28;20050;-73
2021/08/16 09:07:54;;;;;;;5.15;3.35;;;21.10;99.90;;;;;;4995399;28;20065;-73
2021/08/16 09:10:22;;;;;;;4.75;3.28;;;21.50;99.90;;;;;;4995156;28;20018;-72
2021/08/16 09:12:48;;;;;;;5.68;2.75;;;21.40;99.90;;;;;;4993704;28;20037;-73
2021/08/16 09:15:23;;;;;;;6.40;3.30;;;21.40;99.90;;;;;;4994797;28;20101;-74
2021/08/16 09:17:52;;;;;;;6.82;2.90;;;21.20;99.90;;;;;;4993764;28;20105;-72
2021/08/16 09:20:28;;;;;;;5.53;3.10;;;21.30;99.90;;;;;;4994998;28;20358;-73
2021/08/16 09:23:14;;;;;;;;;;;21.60;99.90;;;;;;4994141;28;20269;-73
2021/08/16 09:25:52;;;;;;;7.95;2.90;;;22.00;99.90;;;;;;4994708;28;20362;-73
2021/08/16 09:28:29;;;;;;;5.82;2.88;;;22.20;99.90;;;;;;4994940;28;20026;-73
2021/08/16 09:30:56;;;;;;;5.75;2.85;;;22.30;99.90;;;;;;4994476;28;20363;-73
2021/08/16 09:33:22;;;;;;;5.80;2.65;;;22.20;99.90;;;;;;4994956;28;20114;-73
2021/08/16 09:35:56;;;;;;;5.78;2.50;;;22.00;99.90;;;;;;4994483;28;20109;-73
2021/08/16 09:38:39;;;;;;;5.13;2.45;;;22.10;99.90;;;;;;4993359;28;20022;-73
2021/08/16 09:41:18;;;;;;;4.57;2.22;;;22.40;99.90;;;;;;4994730;28;20057;-73
2021/08/16 09:43:43;;;;;;;6.57;2.38;;;22.40;99.90;;;;;;4994587;28;20030;-73
2021/08/16 09:46:14;;;;;;;6.43;2.30;;;22.20;99.90;;;;;;4993132;28;20069;-72
2021/08/16 09:48:40;;;;;;;3.80;2.00;;;22.10;99.90;;;;;;4994513;28;20093;-73
2021/08/16 09:51:05;;;;;;;4.15;2.15;;;22.10;99.90;;;;;;4994183;28;20034;-74
2021/08/16 09:53:32;;;;;;;7.43;2.58;;;21.80;99.90;;;;;;4994327;28;20026;-72
2021/08/16 09:56:02;;;;;;;4.57;2.42;;;21.70;99.90;;;;;;4992831;28;20080;-73
2021/08/16 09:58:28;;;;;;;7.45;2.50;;;21.90;99.90;;;;;;4994269;28;20031;-73
2021/08/16 10:00:56;;;;;;;6.05;2.63;;;21.90;99.90;;;;;;4994231;28;20030;-73
2021/08/16 10:03:23;;;;;;;5.72;2.40;;;21.90;99.90;;;;;;4994182;28;20080;-73
2021/08/16 10:05:50;;;;;;;5.20;2.63;;;22.30;99.90;;;;;;4994084;28;20392;-73
2021/08/16 10:08:23;;;;;;;7.13;2.33;;;22.20;99.90;;;;;;4994142;28;20034;-73
2021/08/16 10:10:52;;;;;;;5.07;2.40;;;21.80;99.90;;;;;;4993926;28;20033;-73
2021/08/16 10:13:20;;;;;;;5.85;2.00;;;21.80;99.90;;;;;;5013401;28;20499;-73
2021/08/16 10:15:50;;;;;;;3.92;2.30;;;21.90;99.90;;;;;;4995434;28;20431;-73
2021/08/16 10:18:23;;;;;;;4.32;2.33;;;21.90;99.90;;;;;;4994272;28;20451;-73
2021/08/16 10:20:49;;;;;;;4.97;2.20;;;22.00;99.90;;;;;;4994013;28;20118;-74
2021/08/16 10:23:23;;;;;;;7.25;2.45;;;21.90;99.90;;;;;;4993794;28;20022;-73
2021/08/16 10:25:51;;;;;;;4.10;2.00;;;21.80;99.90;;;;;;4993466;28;20022;-74
2021/08/16 10:28:34;;;;;;;5.80;2.20;;;22.00;99.90;;;;;;5004271;28;20030;-73
2021/08/16 10:31:01;;;;;;;6.85;2.50;;;22.10;99.90;;;;;;5011864;28;20033;-74
2021/08/16 10:33:27;;;;;;;7.50;2.63;;;22.30;99.90;;;;;;5013323;28;20026;-73
2021/08/16 10:35:54;;;;;;;5.88;2.22;;;22.30;99.90;;;;;;5013041;28;20084;-74
2021/08/16 10:38:20;;;;;;;4.72;1.88;;;22.10;99.90;;;;;;5013005;28;20518;-73
2021/08/16 10:40:52;;;;;;;5.30;2.30;;;21.70;99.90;;;;;;5006382;28;20505;-73
2021/08/16 10:43:19;;;;;;;3.60;2.13;;;21.60;99.90;;;;;;4993380;28;20507;-73
2021/08/16 10:45:48;;;;;;;3.78;2.30;;;21.60;99.90;;;;;;4993201;28;20045;-73
2021/08/16 10:48:28;;;;;;;6.05;2.05;;;21.80;99.90;;;;;;4993288;28;20018;-74
2021/08/16 10:51:10;;;;;;;10.38;2.53;;;21.80;99.90;;;;;;4993178;28;20026;-74
2021/08/16 10:53:54;;;;;;;5.53;2.42;;;22.20;99.90;;;;;;4991899;28;20018;-73
2021/08/16 10:56:23;;;;;;;4.57;2.00;;;22.70;99.90;;;;;;4993083;28;20479;-73
2021/08/16 10:58:50;;;;;;;4.13;2.15;;;22.90;99.90;;;;;;4993211;28;20029;-74
2021/08/16 11:01:29;;;;;;;3.92;1.90;;;23.00;99.90;;;;;;4992741;28;20065;-73
2021/08/16 11:03:59;;;;;;;3.45;2.00;;;22.70;99.90;;;;;;4993234;28;20058;-73
2021/08/16 11:06:26;;;;;;;4.65;2.05;;;22.70;99.90;;;;;;4992681;28;20026;-72
2021/08/16 11:09:05;;;;;;;5.70;2.33;;;22.60;99.90;;;;;;4993088;28;20029;-73
2021/08/16 11:11:35;;;;;;;5.88;2.20;;;23.20;99.90;;;;;;4992777;28;20030;-73
2021/08/16 11:14:08;;;;;;;4.70;2.00;;;23.00;99.90;;;;;;4991510;28;20069;-73
2021/08/16 11:16:34;;;;;;;5.53;1.85;;;22.70;99.90;;;;;;4980560;28;20485;-74
2021/08/16 11:19:00;;;;;;;3.72;1.80;;;22.30;99.90;;;;;;4992913;28;20034;-73
2021/08/16 11:21:29;;;;;;;5.90;1.95;;;22.10;99.90;;;;;;4992535;28;20080;-73
2021/08/16 11:24:04;;;;;;;3.33;1.60;;;22.10;99.90;;;;;;4993395;28;20480;-74
2021/08/16 11:26:29;;;;;;;4.30;1.98;;;22.30;99.90;;;;;;4992859;28;20038;-73
2021/08/16 11:29:05;;;;;;;4.20;1.65;;;22.20;99.90;;;;;;4991611;28;20477;-74
2021/08/16 11:31:31;;;;;;;3.10;2.00;;;22.00;99.90;;;;;;4992428;28;20030;-73
2021/08/16 11:34:06;;;;;;;4.07;1.58;;;22.00;99.90;;;;;;4993123;28;20106;-72
2021/08/16 11:36:34;;;;;;;5.47;2.10;;;22.10;99.90;;;;;;4992416;28;20025;-72
2021/08/16 11:38:59;;;;;;;4.32;1.77;;;22.30;99.90;;;;;;4991072;28;20057;-72
2021/08/16 11:41:30;;;;;;;3.78;1.70;;;22.80;99.90;;;;;;4991429;28;20034;-72
2021/08/16 11:43:56;;;;;;;3.90;1.67;;;23.30;99.90;;;;;;4992418;28;20022;-72
2021/08/16 11:46:22;;;;;;;6.57;2.22;;;23.20;99.90;;;;;;4992217;28;20040;-73
2021/08/16 11:48:52;;;;;;;3.28;1.52;;;23.00;99.90;;;;;;4992370;28;20397;-72
2021/08/16 11:51:19;;;;;;;5.93;1.98;;;22.70;99.90;;;;;;4990771;28;20049;-73
2021/08/16 11:53:47;;;;;;;4.00;1.75;;;23.10;99.90;;;;;;4992749;28;20029;-72
2021/08/16 11:56:12;;;;;;;2.90;1.52;;;22.90;99.90;;;;;;4992129;28;20023;-73
2021/08/16 11:58:43;;;;;;;4.03;1.70;;;22.60;99.90;;;;;;4992409;28;20077;-73
2021/08/16 12:01:10;;;;;;;2.80;1.55;;;23.30;99.90;;;;;;4992107;28;20100;-72
2021/08/16 12:03:36;;;;;;;5.97;2.08;;;23.00;99.90;;;;;;4992285;28;20113;-72
2021/08/16 12:06:04;;;;;;;3.33;1.70;;;22.80;99.90;;;;;;4991900;28;20034;-72
2021/08/16 12:08:30;;;;;;;5.07;1.80;;;22.90;99.90;;;;;;4992196;28;20093;-73
2021/08/16 12:10:56;;;;;;;3.40;1.50;;;22.50;99.90;;;;;;4992221;28;20034;-72
2021/08/16 12:13:23;;;;;;;7.00;2.40;;;22.40;99.90;;;;;;4992307;28;20026;-73
2021/08/16 12:15:50;;;;;;;11.25;2.35;;;22.20;99.90;;;;;;4991941;28;20376;-73
2021/08/16 12:18:16;;;;;;;4.80;1.95;;;21.90;99.90;;;;;;4992238;28;20026;-72
2021/08/16 12:20:50;;;;;;;9.63;2.00;;;21.80;99.90;;;;;;4991815;28;20378;-73
2021/08/16 12:23:34;;;;;;;2.80;1.60;;;22.00;99.90;;;;;;4981588;28;20046;-72
2021/08/16 12:26:01;;;;;;;2.80;1.80;;;21.90;99.90;;;;;;4991816;28;20076;-72
2021/08/16 12:28:41;;;;;;;3.55;2.03;;;21.70;99.90;;;;;;4992068;28;20033;-73
2021/08/16 12:31:24;;;;;;;3.85;2.17;;;22.00;99.90;;;;;;4990610;28;20443;-72
2021/08/16 12:34:00;;;;;;;4.47;2.22;;;22.30;99.90;;;;;;4992044;28;20109;-73
2021/08/16 12:36:28;;;;;;;;;;;22.10;99.90;;;;;;4992223;28;20088;-73